sensor_id;sensor_type;location;lat;lon;timestamp;pressure;altitude;pressure_sealevel;temperature;humidity
63181;BME280;49273;37.772;-122.432;2022-07-29T00:01:48;100631.00;;;17.89;74.57
63181;BME280;49273;37.772;-122.432;2022-07-29T00:04:16;100625.45;;;17.71;75.62
63181;BME280;49273;37.772;-122.432;2022-07-29T00:06:43;100624.73;;;17.88;74.91
63181;BME280;49273;37.772;-122.432;2022-07-29T00:09:12;100632.75;;;17.64;75.54
63181;BME280;49273;37.772;-122.432;2022-07-29T00:11:40;100614.49;;;17.79;75.62
63181;BME280;49273;37.772;-122.432;2022-07-29T00:14:08;100616.19;;;17.94;75.00
63181;BME280;49273;37.772;-122.432;2022-07-29T00:16:36;100616.84;;;18.24;74.41
63181;BME280;49273;37.772;-122.432;2022-07-29T00:19:05;100616.17;;;18.09;74.85
63181;BME280;49273;37.772;-122.432;2022-07-29T00:21:33;100609.78;;;17.70;75.67
63181;BME280;49273;37.772;-122.432;2022-07-29T00:24:01;100610.74;;;17.77;75.67
63181;BME280;49273;37.772;-122.432;2022-07-29T00:26:29;100607.09;;;17.71;76.17
63181;BME280;49273;37.772;-122.432;2022-07-29T00:28:58;100615.76;;;17.83;75.85
63181;BME280;49273;37.772;-122.432;2022-07-29T00:31:26;100630.75;;;17.84;75.77
63181;BME280;49273;37.772;-122.432;2022-07-29T00:33:55;100619.32;;;17.38;78.17
63181;BME280;49273;37.772;-122.432;2022-07-29T00:36:23;100614.65;;;17.80;76.28
63181;BME280;49273;37.772;-122.432;2022-07-29T00:38:51;100607.59;;;17.73;76.51
63181;BME280;49273;37.772;-122.432;2022-07-29T00:41:19;100602.85;;;17.57;77.30
63181;BME280;49273;37.772;-122.432;2022-07-29T00:43:48;100590.06;;;17.57;77.17
63181;BME280;49273;37.772;-122.432;2022-07-29T00:46:16;100585.96;;;17.68;77.17
63181;BME280;49273;37.772;-122.432;2022-07-29T00:48:43;100593.24;;;17.36;78.53
63181;BME280;49273;37.772;-122.432;2022-07-29T00:51:13;100587.63;;;17.51;78.35
63181;BME280;49273;37.772;-122.432;2022-07-29T00:53:42;100587.60;;;17.91;76.64
63181;BME280;49273;37.772;-122.432;2022-07-29T00:56:11;100586.66;;;17.66;77.08
63181;BME280;49273;37.772;-122.432;2022-07-29T00:58:39;100585.30;;;17.80;76.17
63181;BME280;49273;37.772;-122.432;2022-07-29T01:01:07;100590.98;;;17.53;77.77
63181;BME280;49273;37.772;-122.432;2022-07-29T01:03:36;100590.05;;;17.30;78.21
63181;BME280;49273;37.772;-122.432;2022-07-29T01:06:04;100605.91;;;17.04;79.61
63181;BME280;49273;37.772;-122.432;2022-07-29T01:08:33;100598.06;;;16.62;81.92
63181;BME280;49273;37.772;-122.432;2022-07-29T01:11:02;100598.65;;;16.30;84.45
63181;BME280;49273;37.772;-122.432;2022-07-29T01:13:31;100593.49;;;16.54;83.29
63181;BME280;49273;37.772;-122.432;2022-07-29T01:16:06;100591.46;;;16.20;84.60
63181;BME280;49273;37.772;-122.432;2022-07-29T01:18:39;100587.57;;;16.30;84.05
63181;BME280;49273;37.772;-122.432;2022-07-29T01:21:27;100589.44;;;16.18;85.31
63181;BME280;49273;37.772;-122.432;2022-07-29T01:24:16;100589.44;;;15.92;86.67
63181;BME280;49273;37.772;-122.432;2022-07-29T01:26:54;100589.79;;;16.24;85.93
63181;BME280;49273;37.772;-122.432;2022-07-29T01:29:27;100589.86;;;16.20;85.37
63181;BME280;49273;37.772;-122.432;2022-07-29T01:32:01;100591.47;;;16.02;86.67
63181;BME280;49273;37.772;-122.432;2022-07-29T01:34:34;100593.23;;;15.92;87.91
63181;BME280;49273;37.772;-122.432;2022-07-29T01:37:10;100601.66;;;15.99;88.16
63181;BME280;49273;37.772;-122.432;2022-07-29T01:39:44;100597.85;;;15.86;89.96
63181;BME280;49273;37.772;-122.432;2022-07-29T01:42:19;100600.04;;;15.97;89.68
63181;BME280;49273;37.772;-122.432;2022-07-29T01:44:55;100607.04;;;15.95;90.59
63181;BME280;49273;37.772;-122.432;2022-07-29T01:47:29;100601.54;;;16.04;90.18
63181;BME280;49273;37.772;-122.432;2022-07-29T01:50:00;100600.64;;;15.71;90.29
63181;BME280;49273;37.772;-122.432;2022-07-29T01:52:33;100603.27;;;16.11;89.22
63181;BME280;49273;37.772;-122.432;2022-07-29T01:55:07;100602.70;;;16.24;88.76
63181;BME280;49273;37.772;-122.432;2022-07-29T01:57:36;100600.39;;;16.11;89.60
63181;BME280;49273;37.772;-122.432;2022-07-29T02:00:07;100600.16;;;16.10;89.77
63181;BME280;49273;37.772;-122.432;2022-07-29T02:02:38;100609.36;;;16.28;89.04
63181;BME280;49273;37.772;-122.432;2022-07-29T02:05:10;100613.15;;;15.86;90.79
63181;BME280;49273;37.772;-122.432;2022-07-29T02:07:39;100605.69;;;15.80;92.03
63181;BME280;49273;37.772;-122.432;2022-07-29T02:10:10;100591.46;;;15.82;92.23
63181;BME280;49273;37.772;-122.432;2022-07-29T02:12:41;100590.61;;;15.71;92.02
63181;BME280;49273;37.772;-122.432;2022-07-29T02:15:12;100593.39;;;15.44;92.83
63181;BME280;49273;37.772;-122.432;2022-07-29T02:17:44;100594.78;;;15.77;91.50
63181;BME280;49273;37.772;-122.432;2022-07-29T02:20:14;100599.69;;;15.96;90.79
63181;BME280;49273;37.772;-122.432;2022-07-29T02:22:45;100594.95;;;15.63;92.32
63181;BME280;49273;37.772;-122.432;2022-07-29T02:25:14;100601.81;;;15.58;92.83
63181;BME280;49273;37.772;-122.432;2022-07-29T02:27:44;100606.65;;;15.56;93.32
63181;BME280;49273;37.772;-122.432;2022-07-29T02:30:13;100606.49;;;15.58;93.59
63181;BME280;49273;37.772;-122.432;2022-07-29T02:32:42;100607.51;;;15.66;93.59
63181;BME280;49273;37.772;-122.432;2022-07-29T02:35:14;100613.17;;;15.50;94.75
63181;BME280;49273;37.772;-122.432;2022-07-29T02:37:44;100611.08;;;15.50;93.67
63181;BME280;49273;37.772;-122.432;2022-07-29T02:40:14;100609.48;;;15.61;92.79
63181;BME280;49273;37.772;-122.432;2022-07-29T02:42:44;100608.81;;;15.71;93.18
63181;BME280;49273;37.772;-122.432;2022-07-29T02:45:14;100601.62;;;15.82;91.87
63181;BME280;49273;37.772;-122.432;2022-07-29T02:47:43;100600.55;;;15.78;92.42
63181;BME280;49273;37.772;-122.432;2022-07-29T02:50:15;100602.93;;;15.90;92.00
63181;BME280;49273;37.772;-122.432;2022-07-29T02:52:51;100610.69;;;16.00;91.11
63181;BME280;49273;37.772;-122.432;2022-07-29T02:55:30;100611.84;;;15.90;91.45
63181;BME280;49273;37.772;-122.432;2022-07-29T02:58:02;100616.62;;;15.84;91.40
63181;BME280;49273;37.772;-122.432;2022-07-29T03:00:34;100617.21;;;15.82;90.99
63181;BME280;49273;37.772;-122.432;2022-07-29T03:03:11;100616.45;;;15.85;91.06
63181;BME280;49273;37.772;-122.432;2022-07-29T03:05:40;100622.79;;;15.84;91.38
63181;BME280;49273;37.772;-122.432;2022-07-29T03:08:11;100623.40;;;15.86;91.59
63181;BME280;49273;37.772;-122.432;2022-07-29T03:10:43;100618.45;;;15.78;91.23
63181;BME280;49273;37.772;-122.432;2022-07-29T03:13:13;100620.37;;;15.62;91.86
63181;BME280;49273;37.772;-122.432;2022-07-29T03:15:43;100621.65;;;15.83;90.45
63181;BME280;49273;37.772;-122.432;2022-07-29T03:18:12;100629.08;;;15.78;91.14
63181;BME280;49273;37.772;-122.432;2022-07-29T03:20:40;100635.11;;;15.77;92.10
63181;BME280;49273;37.772;-122.432;2022-07-29T03:23:09;100633.01;;;15.48;93.07
63181;BME280;49273;37.772;-122.432;2022-07-29T03:25:37;100638.24;;;15.64;93.17
63181;BME280;49273;37.772;-122.432;2022-07-29T03:28:05;100645.11;;;15.50;93.49
63181;BME280;49273;37.772;-122.432;2022-07-29T03:30:33;100646.72;;;15.44;94.11
63181;BME280;49273;37.772;-122.432;2022-07-29T03:33:00;100646.06;;;15.70;92.66
63181;BME280;49273;37.772;-122.432;2022-07-29T03:35:28;100643.50;;;15.39;93.69
63181;BME280;49273;37.772;-122.432;2022-07-29T03:37:56;100635.32;;;15.36;93.03
63181;BME280;49273;37.772;-122.432;2022-07-29T03:40:30;100631.96;;;15.28;93.42
63181;BME280;49273;37.772;-122.432;2022-07-29T03:42:59;100640.66;;;15.39;93.40
63181;BME280;49273;37.772;-122.432;2022-07-29T03:45:29;100639.67;;;15.22;93.24
63181;BME280;49273;37.772;-122.432;2022-07-29T03:48:01;100638.31;;;15.51;92.75
63181;BME280;49273;37.772;-122.432;2022-07-29T03:50:30;100638.08;;;15.41;93.19
63181;BME280;49273;37.772;-122.432;2022-07-29T03:52:58;100639.20;;;15.46;93.58
63181;BME280;49273;37.772;-122.432;2022-07-29T03:55:29;100641.14;;;15.56;93.28
63181;BME280;49273;37.772;-122.432;2022-07-29T03:58:01;100651.91;;;15.59;92.96
63181;BME280;49273;37.772;-122.432;2022-07-29T04:00:30;100639.88;;;15.28;93.99
63181;BME280;49273;37.772;-122.432;2022-07-29T04:02:59;100634.65;;;15.32;94.30
63181;BME280;49273;37.772;-122.432;2022-07-29T04:05:27;100635.86;;;15.18;94.98
63181;BME280;49273;37.772;-122.432;2022-07-29T04:07:54;100634.31;;;15.43;94.08
63181;BME280;49273;37.772;-122.432;2022-07-29T04:10:22;100627.56;;;15.46;94.04
63181;BME280;49273;37.772;-122.432;2022-07-29T04:12:50;100631.05;;;15.32;94.64
63181;BME280;49273;37.772;-122.432;2022-07-29T04:15:18;100629.69;;;15.42;93.96
63181;BME280;49273;37.772;-122.432;2022-07-29T04:17:46;100636.30;;;15.36;94.28
63181;BME280;49273;37.772;-122.432;2022-07-29T04:20:14;100639.77;;;15.14;95.21
63181;BME280;49273;37.772;-122.432;2022-07-29T04:22:41;100632.10;;;15.35;94.32
63181;BME280;49273;37.772;-122.432;2022-07-29T04:25:10;100639.68;;;15.31;94.66
63181;BME280;49273;37.772;-122.432;2022-07-29T04:27:38;100648.46;;;15.57;93.89
63181;BME280;49273;37.772;-122.432;2022-07-29T04:30:07;100652.13;;;15.40;94.39
63181;BME280;49273;37.772;-122.432;2022-07-29T04:32:34;100649.95;;;15.28;94.04
63181;BME280;49273;37.772;-122.432;2022-07-29T04:35:03;100654.13;;;15.32;94.85
63181;BME280;49273;37.772;-122.432;2022-07-29T04:37:31;100655.70;;;15.25;95.02
63181;BME280;49273;37.772;-122.432;2022-07-29T04:39:59;100665.47;;;15.45;94.57
63181;BME280;49273;37.772;-122.432;2022-07-29T04:42:27;100666.99;;;15.15;95.99
63181;BME280;49273;37.772;-122.432;2022-07-29T04:44:54;100664.82;;;15.14;95.37
63181;BME280;49273;37.772;-122.432;2022-07-29T04:47:22;100672.51;;;14.98;96.48
63181;BME280;49273;37.772;-122.432;2022-07-29T04:49:50;100672.49;;;15.14;96.18
63181;BME280;49273;37.772;-122.432;2022-07-29T04:52:18;100664.01;;;15.19;96.25
63181;BME280;49273;37.772;-122.432;2022-07-29T04:54:46;100665.95;;;15.06;96.69
63181;BME280;49273;37.772;-122.432;2022-07-29T04:57:14;100659.85;;;15.16;96.88
63181;BME280;49273;37.772;-122.432;2022-07-29T04:59:41;100660.12;;;15.27;97.21
63181;BME280;49273;37.772;-122.432;2022-07-29T05:02:10;100660.08;;;15.17;97.35
63181;BME280;49273;37.772;-122.432;2022-07-29T05:04:38;100663.35;;;15.11;97.48
63181;BME280;49273;37.772;-122.432;2022-07-29T05:07:06;100669.76;;;15.29;96.74
63181;BME280;49273;37.772;-122.432;2022-07-29T05:09:34;100673.66;;;15.18;96.44
63181;BME280;49273;37.772;-122.432;2022-07-29T05:12:02;100671.55;;;15.20;97.28
63181;BME280;49273;37.772;-122.432;2022-07-29T05:14:29;100676.98;;;15.12;97.84
63181;BME280;49273;37.772;-122.432;2022-07-29T05:16:57;100677.53;;;15.26;97.61
63181;BME280;49273;37.772;-122.432;2022-07-29T05:19:25;100671.08;;;15.20;97.74
63181;BME280;49273;37.772;-122.432;2022-07-29T05:21:53;100673.09;;;15.27;97.77
63181;BME280;49273;37.772;-122.432;2022-07-29T05:24:21;100676.34;;;15.14;97.95
63181;BME280;49273;37.772;-122.432;2022-07-29T05:26:49;100681.38;;;15.10;98.03
63181;BME280;49273;37.772;-122.432;2022-07-29T05:29:17;100687.56;;;15.27;97.99
63181;BME280;49273;37.772;-122.432;2022-07-29T05:31:44;100680.25;;;15.32;97.75
63181;BME280;49273;37.772;-122.432;2022-07-29T05:34:13;100682.76;;;15.28;97.59
63181;BME280;49273;37.772;-122.432;2022-07-29T05:36:41;100686.11;;;15.19;98.09
63181;BME280;49273;37.772;-122.432;2022-07-29T05:39:09;100695.44;;;15.36;97.28
63181;BME280;49273;37.772;-122.432;2022-07-29T05:41:37;100694.44;;;15.26;97.78
63181;BME280;49273;37.772;-122.432;2022-07-29T05:44:05;100692.74;;;15.18;98.43
63181;BME280;49273;37.772;-122.432;2022-07-29T05:46:33;100692.90;;;15.40;98.25
63181;BME280;49273;37.772;-122.432;2022-07-29T05:49:01;100690.44;;;15.37;97.55
63181;BME280;49273;37.772;-122.432;2022-07-29T05:51:29;100679.20;;;15.41;97.35
63181;BME280;49273;37.772;-122.432;2022-07-29T05:53:56;100675.76;;;15.46;97.19
63181;BME280;49273;37.772;-122.432;2022-07-29T05:56:24;100672.66;;;15.44;96.83
63181;BME280;49273;37.772;-122.432;2022-07-29T05:58:52;100677.64;;;15.29;96.74
63181;BME280;49273;37.772;-122.432;2022-07-29T06:01:20;100675.91;;;15.35;97.31
63181;BME280;49273;37.772;-122.432;2022-07-29T06:03:48;100683.82;;;15.25;97.39
63181;BME280;49273;37.772;-122.432;2022-07-29T06:06:15;100676.01;;;15.32;98.12
63181;BME280;49273;37.772;-122.432;2022-07-29T06:08:43;100669.96;;;15.47;96.59
63181;BME280;49273;37.772;-122.432;2022-07-29T06:11:11;100667.36;;;15.24;97.76
63181;BME280;49273;37.772;-122.432;2022-07-29T06:13:40;100659.01;;;15.34;97.82
63181;BME280;49273;37.772;-122.432;2022-07-29T06:16:08;100648.75;;;15.21;98.46
63181;BME280;49273;37.772;-122.432;2022-07-29T06:18:35;100650.87;;;15.15;98.59
63181;BME280;49273;37.772;-122.432;2022-07-29T06:21:07;100651.64;;;15.09;98.88
63181;BME280;49273;37.772;-122.432;2022-07-29T06:23:36;100648.28;;;15.13;98.83
63181;BME280;49273;37.772;-122.432;2022-07-29T06:26:04;100656.40;;;15.18;99.97
63181;BME280;49273;37.772;-122.432;2022-07-29T06:28:33;100645.32;;;14.92;100.00
63181;BME280;49273;37.772;-122.432;2022-07-29T06:31:01;100644.71;;;15.08;99.81
63181;BME280;49273;37.772;-122.432;2022-07-29T06:33:29;100658.76;;;15.11;100.00
63181;BME280;49273;37.772;-122.432;2022-07-29T06:35:56;100675.86;;;15.03;100.00
63181;BME280;49273;37.772;-122.432;2022-07-29T06:38:24;100679.54;;;15.14;100.00
63181;BME280;49273;37.772;-122.432;2022-07-29T06:40:52;100682.67;;;15.09;100.00
63181;BME280;49273;37.772;-122.432;2022-07-29T06:43:20;100688.32;;;15.19;99.41
63181;BME280;49273;37.772;-122.432;2022-07-29T06:45:48;100694.18;;;15.17;99.37
63181;BME280;49273;37.772;-122.432;2022-07-29T06:48:16;100692.62;;;15.12;100.00
63181;BME280;49273;37.772;-122.432;2022-07-29T06:50:44;100682.25;;;15.15;99.88
63181;BME280;49273;37.772;-122.432;2022-07-29T06:53:12;100682.33;;;15.33;99.70
63181;BME280;49273;37.772;-122.432;2022-07-29T06:55:40;100689.58;;;15.31;99.52
63181;BME280;49273;37.772;-122.432;2022-07-29T06:58:08;100690.22;;;15.19;99.79
63181;BME280;49273;37.772;-122.432;2022-07-29T07:00:36;100700.81;;;15.34;99.62
63181;BME280;49273;37.772;-122.432;2022-07-29T07:03:03;100693.89;;;15.25;100.00
63181;BME280;49273;37.772;-122.432;2022-07-29T07:05:31;100696.66;;;15.26;99.95
63181;BME280;49273;37.772;-122.432;2022-07-29T07:07:59;100691.09;;;15.31;99.73
63181;BME280;49273;37.772;-122.432;2022-07-29T07:10:27;100701.34;;;15.24;99.82
63181;BME280;49273;37.772;-122.432;2022-07-29T07:12:55;100691.94;;;15.18;100.00
63181;BME280;49273;37.772;-122.432;2022-07-29T07:15:23;100692.78;;;15.23;100.00
63181;BME280;49273;37.772;-122.432;2022-07-29T07:17:51;100691.71;;;15.24;100.00
63181;BME280;49273;37.772;-122.432;2022-07-29T07:20:18;100690.70;;;15.28;100.00
63181;BME280;49273;37.772;-122.432;2022-07-29T07:22:47;100695.20;;;15.29;100.00
63181;BME280;49273;37.772;-122.432;2022-07-29T07:25:15;100694.05;;;15.37;99.81
63181;BME280;49273;37.772;-122.432;2022-07-29T07:27:43;100686.50;;;15.31;99.32
63181;BME280;49273;37.772;-122.432;2022-07-29T07:30:13;100684.39;;;15.32;100.00
63181;BME280;49273;37.772;-122.432;2022-07-29T07:32:41;100691.76;;;15.36;99.93
63181;BME280;49273;37.772;-122.432;2022-07-29T07:35:10;100697.91;;;15.26;100.00
63181;BME280;49273;37.772;-122.432;2022-07-29T07:37:38;100697.70;;;15.34;99.89
63181;BME280;49273;37.772;-122.432;2022-07-29T07:40:08;100695.41;;;15.41;99.84
63181;BME280;49273;37.772;-122.432;2022-07-29T07:42:37;100687.32;;;15.44;99.15
63181;BME280;49273;37.772;-122.432;2022-07-29T07:45:05;100686.77;;;15.26;99.56
63181;BME280;49273;37.772;-122.432;2022-07-29T07:47:33;100688.74;;;15.29;100.00
63181;BME280;49273;37.772;-122.432;2022-07-29T07:50:01;100689.70;;;15.32;100.00
63181;BME280;49273;37.772;-122.432;2022-07-29T07:52:30;100682.58;;;15.27;100.00
63181;BME280;49273;37.772;-122.432;2022-07-29T07:54:58;100686.73;;;15.13;100.00
63181;BME280;49273;37.772;-122.432;2022-07-29T07:57:26;100685.69;;;15.27;100.00
63181;BME280;49273;37.772;-122.432;2022-07-29T07:59:54;100690.67;;;15.36;100.00
63181;BME280;49273;37.772;-122.432;2022-07-29T08:02:22;100685.30;;;15.12;100.00
63181;BME280;49273;37.772;-122.432;2022-07-29T08:04:50;100686.11;;;15.14;100.00
63181;BME280;49273;37.772;-122.432;2022-07-29T08:07:17;100683.99;;;15.24;100.00
63181;BME280;49273;37.772;-122.432;2022-07-29T08:09:45;100679.85;;;15.20;100.00
63181;BME280;49273;37.772;-122.432;2022-07-29T08:12:13;100682.72;;;15.31;100.00
63181;BME280;49273;37.772;-122.432;2022-07-29T08:14:41;100675.71;;;15.13;100.00
63181;BME280;49273;37.772;-122.432;2022-07-29T08:17:09;100670.52;;;15.40;100.00
63181;BME280;49273;37.772;-122.432;2022-07-29T08:19:37;100668.47;;;15.13;100.00
63181;BME280;49273;37.772;-122.432;2022-07-29T08:22:04;100663.89;;;15.25;100.00
63181;BME280;49273;37.772;-122.432;2022-07-29T08:24:33;100665.45;;;15.26;100.00
63181;BME280;49273;37.772;-122.432;2022-07-29T08:27:00;100665.99;;;15.24;100.00
63181;BME280;49273;37.772;-122.432;2022-07-29T08:29:28;100667.16;;;15.25;100.00
63181;BME280;49273;37.772;-122.432;2022-07-29T08:31:56;100664.84;;;15.33;100.00
63181;BME280;49273;37.772;-122.432;2022-07-29T08:34:24;100660.94;;;15.31;99.47
63181;BME280;49273;37.772;-122.432;2022-07-29T08:36:52;100661.39;;;15.33;99.77
63181;BME280;49273;37.772;-122.432;2022-07-29T08:39:19;100663.81;;;15.38;100.00
63181;BME280;49273;37.772;-122.432;2022-07-29T08:41:47;100665.80;;;15.08;100.00
63181;BME280;49273;37.772;-122.432;2022-07-29T08:44:16;100659.04;;;15.09;100.00
63181;BME280;49273;37.772;-122.432;2022-07-29T08:46:44;100652.05;;;15.01;100.00
63181;BME280;49273;37.772;-122.432;2022-07-29T08:49:13;100650.01;;;15.25;100.00
63181;BME280;49273;37.772;-122.432;2022-07-29T08:51:42;100658.95;;;15.35;100.00
63181;BME280;49273;37.772;-122.432;2022-07-29T08:54:10;100659.49;;;15.20;100.00
63181;BME280;49273;37.772;-122.432;2022-07-29T08:56:39;100658.27;;;15.25;100.00
63181;BME280;49273;37.772;-122.432;2022-07-29T08:59:08;100663.61;;;15.19;100.00
63181;BME280;49273;37.772;-122.432;2022-07-29T09:01:38;100663.13;;;15.15;100.00
63181;BME280;49273;37.772;-122.432;2022-07-29T09:04:11;100655.60;;;15.13;100.00
63181;BME280;49273;37.772;-122.432;2022-07-29T09:06:44;100657.10;;;15.21;100.00
63181;BME280;49273;37.772;-122.432;2022-07-29T09:09:12;100661.84;;;15.21;100.00
63181;BME280;49273;37.772;-122.432;2022-07-29T09:11:41;100663.33;;;15.24;100.00
63181;BME280;49273;37.772;-122.432;2022-07-29T09:14:11;100655.24;;;15.12;100.00
63181;BME280;49273;37.772;-122.432;2022-07-29T09:16:50;100655.27;;;15.02;100.00
63181;BME280;49273;37.772;-122.432;2022-07-29T09:19:23;100658.60;;;15.22;100.00
63181;BME280;49273;37.772;-122.432;2022-07-29T09:21:51;100659.29;;;15.37;100.00
63181;BME280;49273;37.772;-122.432;2022-07-29T09:24:19;100657.90;;;15.32;100.00
63181;BME280;49273;37.772;-122.432;2022-07-29T09:26:47;100654.62;;;15.37;99.64
63181;BME280;49273;37.772;-122.432;2022-07-29T09:29:16;100653.67;;;15.38;100.00
63181;BME280;49273;37.772;-122.432;2022-07-29T09:31:46;100652.53;;;15.32;100.00
63181;BME280;49273;37.772;-122.432;2022-07-29T09:34:16;100652.72;;;15.27;100.00
63181;BME280;49273;37.772;-122.432;2022-07-29T09:36:47;100644.76;;;15.34;99.99
63181;BME280;49273;37.772;-122.432;2022-07-29T09:39:27;100648.40;;;15.34;99.86
63181;BME280;49273;37.772;-122.432;2022-07-29T09:41:57;100649.24;;;15.17;100.00
63181;BME280;49273;37.772;-122.432;2022-07-29T09:44:26;100649.32;;;15.16;100.00
63181;BME280;49273;37.772;-122.432;2022-07-29T09:46:57;100655.81;;;15.18;100.00
63181;BME280;49273;37.772;-122.432;2022-07-29T09:49:26;100650.56;;;15.34;99.33
63181;BME280;49273;37.772;-122.432;2022-07-29T09:52:05;100650.82;;;15.11;100.00
63181;BME280;49273;37.772;-122.432;2022-07-29T09:54:34;100654.44;;;15.15;100.00
63181;BME280;49273;37.772;-122.432;2022-07-29T09:57:04;100651.20;;;15.32;100.00
63181;BME280;49273;37.772;-122.432;2022-07-29T09:59:33;100645.89;;;15.30;100.00
63181;BME280;49273;37.772;-122.432;2022-07-29T10:02:01;100639.47;;;15.23;100.00
63181;BME280;49273;37.772;-122.432;2022-07-29T10:04:39;100635.06;;;15.04;100.00
63181;BME280;49273;37.772;-122.432;2022-07-29T10:07:08;100636.32;;;14.93;100.00
63181;BME280;49273;37.772;-122.432;2022-07-29T10:09:37;100635.45;;;15.07;100.00
63181;BME280;49273;37.772;-122.432;2022-07-29T10:12:08;100630.86;;;15.16;100.00
63181;BME280;49273;37.772;-122.432;2022-07-29T10:14:37;100636.84;;;15.22;100.00
63181;BME280;49273;37.772;-122.432;2022-07-29T10:17:06;100629.15;;;14.98;100.00
63181;BME280;49273;37.772;-122.432;2022-07-29T10:19:36;100628.74;;;15.12;100.00
63181;BME280;49273;37.772;-122.432;2022-07-29T10:22:07;100627.20;;;15.06;100.00
63181;BME280;49273;37.772;-122.432;2022-07-29T10:24:36;100624.89;;;15.20;100.00
63181;BME280;49273;37.772;-122.432;2022-07-29T10:27:05;100627.82;;;15.00;100.00
63181;BME280;49273;37.772;-122.432;2022-07-29T10:29:33;100619.98;;;15.21;100.00
63181;BME280;49273;37.772;-122.432;2022-07-29T10:32:19;100621.16;;;15.04;100.00
63181;BME280;49273;37.772;-122.432;2022-07-29T10:35:01;100629.82;;;15.23;100.00
63181;BME280;49273;37.772;-122.432;2022-07-29T10:37:50;100626.42;;;14.87;100.00
63181;BME280;49273;37.772;-122.432;2022-07-29T10:40:34;100627.92;;;15.05;100.00
63181;BME280;49273;37.772;-122.432;2022-07-29T10:43:17;100625.60;;;15.19;100.00
63181;BME280;49273;37.772;-122.432;2022-07-29T10:45:46;100629.79;;;15.23;100.00
63181;BME280;49273;37.772;-122.432;2022-07-29T10:48:15;100635.21;;;15.12;100.00
63181;BME280;49273;37.772;-122.432;2022-07-29T10:50:59;100636.97;;;15.16;100.00
63181;BME280;49273;37.772;-122.432;2022-07-29T10:53:47;100633.92;;;15.34;100.00
63181;BME280;49273;37.772;-122.432;2022-07-29T10:56:32;100626.98;;;15.15;100.00
63181;BME280;49273;37.772;-122.432;2022-07-29T10:59:33;100634.84;;;15.46;99.64
63181;BME280;49273;37.772;-122.432;2022-07-29T11:02:00;100642.88;;;15.28;100.00
63181;BME280;49273;37.772;-122.432;2022-07-29T11:05:01;100642.06;;;15.35;100.00
63181;BME280;49273;37.772;-122.432;2022-07-29T11:07:29;100639.77;;;15.42;99.20
63181;BME280;49273;37.772;-122.432;2022-07-29T11:10:29;100641.05;;;15.42;98.97
63181;BME280;49273;37.772;-122.432;2022-07-29T11:12:56;100637.81;;;15.26;99.92
63181;BME280;49273;37.772;-122.432;2022-07-29T11:15:24;100642.76;;;15.32;100.00
63181;BME280;49273;37.772;-122.432;2022-07-29T11:18:09;100645.02;;;15.34;99.74
63181;BME280;49273;37.772;-122.432;2022-07-29T11:20:39;100635.97;;;15.26;100.00
63181;BME280;49273;37.772;-122.432;2022-07-29T11:23:40;100635.95;;;15.20;99.83
63181;BME280;49273;37.772;-122.432;2022-07-29T11:26:23;100633.42;;;15.35;99.20
63181;BME280;49273;37.772;-122.432;2022-07-29T11:28:56;100625.73;;;15.26;98.99
63181;BME280;49273;37.772;-122.432;2022-07-29T11:31:35;100628.44;;;15.34;98.83
63181;BME280;49273;37.772;-122.432;2022-07-29T11:34:21;100622.30;;;15.26;99.13
63181;BME280;49273;37.772;-122.432;2022-07-29T11:37:23;100627.82;;;15.27;98.93
63181;BME280;49273;37.772;-122.432;2022-07-29T11:40:24;100628.61;;;15.22;98.77
63181;BME280;49273;37.772;-122.432;2022-07-29T11:42:53;100624.76;;;14.97;100.00
63181;BME280;49273;37.772;-122.432;2022-07-29T11:45:24;100619.91;;;15.05;100.00
63181;BME280;49273;37.772;-122.432;2022-07-29T11:47:53;100619.10;;;15.17;100.00
63181;BME280;49273;37.772;-122.432;2022-07-29T11:50:38;100621.51;;;15.39;99.19
63181;BME280;49273;37.772;-122.432;2022-07-29T11:53:12;100618.83;;;15.18;99.37
63181;BME280;49273;37.772;-122.432;2022-07-29T11:55:41;100624.04;;;15.05;100.00
63181;BME280;49273;37.772;-122.432;2022-07-29T11:58:09;100624.06;;;15.11;100.00
63181;BME280;49273;37.772;-122.432;2022-07-29T12:00:39;100629.69;;;15.24;100.00
63181;BME280;49273;37.772;-122.432;2022-07-29T12:03:09;100629.63;;;15.04;100.00
63181;BME280;49273;37.772;-122.432;2022-07-29T12:05:39;100622.13;;;15.11;100.00
63181;BME280;49273;37.772;-122.432;2022-07-29T12:08:11;100625.82;;;15.23;100.00
63181;BME280;49273;37.772;-122.432;2022-07-29T12:10:40;100629.26;;;15.33;99.96
63181;BME280;49273;37.772;-122.432;2022-07-29T12:13:09;100629.10;;;15.32;99.31
63181;BME280;49273;37.772;-122.432;2022-07-29T12:15:38;100631.69;;;15.16;100.00
63181;BME280;49273;37.772;-122.432;2022-07-29T12:18:15;100634.15;;;15.20;100.00
63181;BME280;49273;37.772;-122.432;2022-07-29T12:20:43;100634.86;;;15.25;99.22
63181;BME280;49273;37.772;-122.432;2022-07-29T12:23:12;100629.80;;;15.12;99.62
63181;BME280;49273;37.772;-122.432;2022-07-29T12:25:42;100626.63;;;15.26;99.75
63181;BME280;49273;37.772;-122.432;2022-07-29T12:28:14;100626.40;;;15.21;99.27
63181;BME280;49273;37.772;-122.432;2022-07-29T12:30:44;100634.26;;;15.17;98.66
63181;BME280;49273;37.772;-122.432;2022-07-29T12:33:17;100637.31;;;15.35;98.85
63181;BME280;49273;37.772;-122.432;2022-07-29T12:35:46;100636.04;;;15.35;99.40